Lakeshore, Mississippi
Current Conditions -  °F | °C
As of 4:51 PM on Saturday 25 Oct 2014 (Local Time) from KHSA Reporting Station
Clear Clear  
Wind Chill: 81°   Ceiling: Unl
Heat Index: 81°   Visibility: 10mi
Dew Point: 52°   Wind: 7mph
Humidity: 37%   Direction: 350°N
Pressure: 30.05"   Gusts: NA
Location:  30.25°N, 89.44°W
Report Text: KHSA 252151Z 35006KT 10SM CLR 27/11 A3005
Loading
Personal Weather Stations






























Interactive Weather Map
Tropical Storm Tracking
New forecast layout! Learn more

10-Day Weather Forecast

Advertisements
Track Severe Weather on mobile